Time;durP1;ratioP1;P1;durP2;ratioP2;P2;SDS_P1;SDS_P2;PMS_P1;PMS_P2;Temp;Humidity;BMP_temperature;BMP_pressure;BME280_temperature;BME280_humidity;BME280_pressure;Samples;Min_cycle;Max_cycle;Signal;HPM_P1;HPM_P2
2021/10/11 00:00:13;;;;;;;3.63;1.10;;;11.40;82.90;;;;;;5050453;28;20098;-74
2021/10/11 00:02:39;;;;;;;1.65;1.35;;;11.40;81.90;;;;;;5049984;28;20108;-74
2021/10/11 00:05:06;;;;;;;2.08;1.45;;;11.40;82.20;;;;;;5050858;28;20414;-74
2021/10/11 00:07:31;;;;;;;1.55;1.10;;;11.40;82.10;;;;;;5050417;28;20065;-74
2021/10/11 00:09:57;;;;;;;1.25;1.15;;;11.40;82.20;;;;;;5050926;28;20126;-74
2021/10/11 00:12:24;;;;;;;1.52;1.38;;;11.40;82.40;;;;;;5052134;28;20033;-74
2021/10/11 00:14:51;;;;;;;1.20;1.10;;;11.40;82.50;;;;;;5049740;28;20029;-74
2021/10/11 00:17:17;;;;;;;1.30;1.20;;;11.40;82.30;;;;;;5051118;28;20028;-75
2021/10/11 00:19:43;;;;;;;1.45;1.35;;;11.30;83.30;;;;;;5049962;28;20464;-74
2021/10/11 00:22:09;;;;;;;2.25;1.45;;;11.30;82.80;;;;;;5052272;28;20021;-74
2021/10/11 00:24:35;;;;;;;1.75;1.23;;;11.40;83.40;;;;;;5052406;28;20521;-74
2021/10/11 00:27:01;;;;;;;1.60;1.50;;;11.40;82.60;;;;;;5039577;28;20038;-74
2021/10/11 00:29:26;;;;;;;1.73;1.30;;;11.40;83.00;;;;;;5048773;28;20032;-74
2021/10/11 00:31:52;;;;;;;2.38;1.60;;;11.50;83.70;;;;;;5042646;28;20029;-74
2021/10/11 00:34:18;;;;;;;1.67;1.58;;;11.50;83.10;;;;;;5051381;28;20383;-74
2021/10/11 00:36:43;;;;;;;2.17;1.50;;;11.50;83.20;;;;;;5043051;28;20512;-74
2021/10/11 00:39:09;;;;;;;1.73;1.50;;;11.50;82.70;;;;;;5044696;28;20017;-74
2021/10/11 00:41:35;;;;;;;3.50;1.40;;;11.60;82.70;;;;;;5050644;28;20074;-74
2021/10/11 00:44:01;;;;;;;1.98;1.27;;;11.60;83.10;;;;;;5049233;28;20028;-74
2021/10/11 00:46:27;;;;;;;1.95;1.40;;;11.60;82.90;;;;;;5043418;28;20491;-74
2021/10/11 00:48:54;;;;;;;1.77;1.67;;;11.60;83.10;;;;;;5049608;28;20135;-74
2021/10/11 00:51:20;;;;;;;1.50;1.40;;;11.60;83.90;;;;;;5045612;28;20116;-74
2021/10/11 00:53:46;;;;;;;1.65;1.45;;;11.60;83.30;;;;;;5049739;28;20155;-74
2021/10/11 00:56:11;;;;;;;1.98;1.50;;;11.60;82.70;;;;;;5047845;28;20446;-74
2021/10/11 00:58:37;;;;;;;1.63;1.52;;;11.60;82.60;;;;;;5043888;28;20017;-74
2021/10/11 01:01:03;;;;;;;1.95;1.45;;;11.70;82.40;;;;;;5048728;28;20493;-74
2021/10/11 01:03:29;;;;;;;1.73;1.60;;;11.80;81.90;;;;;;5050857;28;20064;-74
2021/10/11 01:05:54;;;;;;;5.07;1.40;;;11.90;82.00;;;;;;5049566;28;20403;-74
2021/10/11 01:08:20;;;;;;;1.73;1.33;;;11.90;81.40;;;;;;5041388;28;20487;-74
2021/10/11 01:10:47;;;;;;;1.77;1.65;;;11.90;82.00;;;;;;5051001;28;20013;-74
2021/10/11 01:13:14;;;;;;;2.53;1.67;;;12.00;82.20;;;;;;5051117;28;20029;-74
2021/10/11 01:15:40;;;;;;;1.83;1.73;;;11.90;81.90;;;;;;5048739;28;20106;-74
2021/10/11 01:18:06;;;;;;;1.73;1.50;;;11.90;82.00;;;;;;5049358;28;20391;-74
2021/10/11 01:20:31;;;;;;;1.95;1.50;;;11.90;82.40;;;;;;5049522;28;20247;-74
2021/10/11 01:22:57;;;;;;;1.90;1.80;;;11.90;82.50;;;;;;5050222;28;20127;-74
2021/10/11 01:25:23;;;;;;;2.03;1.83;;;11.90;83.00;;;;;;5049499;28;20025;-74
2021/10/11 01:27:49;;;;;;;2.17;1.73;;;11.90;82.90;;;;;;5040567;28;20090;-74
2021/10/11 01:30:16;;;;;;;3.00;1.65;;;11.90;82.70;;;;;;5048454;28;20387;-74
2021/10/11 01:32:46;;;;;;;2.50;2.05;;;11.90;83.40;;;;;;5050854;28;20020;-74
2021/10/11 01:35:14;;;;;;;3.58;2.00;;;11.90;82.90;;;;;;5049669;28;20033;-74
2021/10/11 01:37:42;;;;;;;2.80;1.70;;;12.00;83.00;;;;;;5050250;28;20060;-74
2021/10/11 01:40:08;;;;;;;4.20;1.80;;;12.00;83.20;;;;;;5048537;28;20036;-74
2021/10/11 01:42:34;;;;;;;1.85;1.67;;;12.00;83.10;;;;;;5047728;28;20451;-74
2021/10/11 01:45:01;;;;;;;2.03;1.38;;;11.90;83.30;;;;;;5045185;28;20029;-75
2021/10/11 01:47:27;;;;;;;2.75;1.73;;;12.00;83.20;;;;;;5047496;28;20045;-74
2021/10/11 01:49:55;;;;;;;1.90;1.75;;;12.00;83.60;;;;;;5050194;28;20028;-74
2021/10/11 01:52:23;;;;;;;1.77;1.50;;;11.90;83.10;;;;;;5044823;28;20033;-74
2021/10/11 01:54:49;;;;;;;1.98;1.70;;;12.00;83.10;;;;;;5048174;28;20041;-74
2021/10/11 01:57:16;;;;;;;1.83;1.63;;;12.00;83.10;;;;;;5043851;28;20021;-74
2021/10/11 01:59:41;;;;;;;2.25;2.03;;;12.00;83.20;;;;;;5048575;28;20091;-74
2021/10/11 02:02:07;;;;;;;2.33;2.00;;;12.00;83.10;;;;;;5048252;28;20024;-74
2021/10/11 02:04:33;;;;;;;2.90;1.88;;;12.10;83.30;;;;;;5050116;28;20039;-74
2021/10/11 02:06:58;;;;;;;3.20;2.22;;;12.00;84.00;;;;;;5050070;28;20094;-74
2021/10/11 02:09:24;;;;;;;2.22;2.03;;;12.00;84.00;;;;;;5045737;28;20432;-74
2021/10/11 02:11:50;;;;;;;2.38;2.08;;;12.00;84.10;;;;;;5049141;28;20551;-74
2021/10/11 02:14:16;;;;;;;4.18;2.13;;;12.00;84.10;;;;;;5048676;28;20104;-74
2021/10/11 02:16:42;;;;;;;2.33;2.00;;;12.00;84.00;;;;;;5049284;28;20108;-74
2021/10/11 02:19:08;;;;;;;2.83;1.90;;;12.00;84.10;;;;;;5047239;28;20025;-74
2021/10/11 02:21:33;;;;;;;1.95;1.77;;;12.00;84.10;;;;;;5044727;28;20036;-74
2021/10/11 02:23:59;;;;;;;5.47;2.17;;;12.00;84.80;;;;;;5049150;28;20487;-74
2021/10/11 02:26:25;;;;;;;3.08;1.90;;;12.10;84.70;;;;;;5049878;28;20112;-74
2021/10/11 02:28:51;;;;;;;4.38;2.25;;;12.10;84.90;;;;;;5049663;28;20606;-74
2021/10/11 02:31:18;;;;;;;2.53;2.10;;;12.00;85.00;;;;;;5042250;28;20036;-74
2021/10/11 02:33:44;;;;;;;3.38;2.10;;;12.00;85.30;;;;;;5049895;28;20422;-74
2021/10/11 02:36:10;;;;;;;4.10;2.20;;;12.10;85.60;;;;;;5048718;28;20498;-74
2021/10/11 02:38:36;;;;;;;2.35;2.03;;;12.00;85.50;;;;;;5042184;28;20044;-74
2021/10/11 02:41:02;;;;;;;3.72;2.42;;;12.00;85.80;;;;;;5048750;28;20029;-74
2021/10/11 02:43:28;;;;;;;2.60;2.30;;;12.00;86.10;;;;;;5047548;28;20127;-74
2021/10/11 02:45:54;;;;;;;4.68;2.25;;;12.00;86.10;;;;;;5049856;28;20045;-74
2021/10/11 02:48:20;;;;;;;4.70;2.65;;;12.00;86.20;;;;;;5048632;28;20487;-74
2021/10/11 02:50:45;;;;;;;3.92;2.67;;;12.00;86.50;;;;;;5048915;28;20096;-74
2021/10/11 02:53:11;;;;;;;2.88;2.28;;;11.90;86.80;;;;;;5050900;28;20120;-74
2021/10/11 02:55:37;;;;;;;3.40;2.70;;;11.90;87.00;;;;;;5049136;28;20063;-74
2021/10/11 02:58:02;;;;;;;4.57;2.38;;;11.90;87.00;;;;;;5052671;28;20025;-74
2021/10/11 03:00:28;;;;;;;4.68;2.67;;;11.90;87.40;;;;;;5046520;28;20037;-74
2021/10/11 03:02:54;;;;;;;3.25;2.47;;;11.90;87.30;;;;;;5052423;28;20078;-74
2021/10/11 03:05:20;;;;;;;4.30;2.55;;;11.90;87.20;;;;;;5052927;28;20079;-74
2021/10/11 03:07:45;;;;;;;6.03;3.05;;;11.90;87.80;;;;;;5042335;28;20316;-74
2021/10/11 03:10:11;;;;;;;7.28;2.75;;;11.90;87.20;;;;;;5053230;28;20471;-74
2021/10/11 03:12:37;;;;;;;4.53;3.42;;;11.90;87.20;;;;;;5052598;28;20576;-74
2021/10/11 03:15:04;;;;;;;5.60;3.15;;;11.90;86.80;;;;;;5051275;28;20143;-74
2021/10/11 03:17:30;;;;;;;9.38;3.20;;;11.90;87.20;;;;;;5048061;28;20029;-74
2021/10/11 03:19:56;;;;;;;3.97;3.30;;;12.00;86.90;;;;;;5049088;28;20021;-74
2021/10/11 03:22:21;;;;;;;3.97;3.30;;;12.00;87.00;;;;;;5045257;28;20086;-74
2021/10/11 03:24:47;;;;;;;4.63;3.55;;;12.00;87.10;;;;;;5053149;28;20395;-74
2021/10/11 03:27:12;;;;;;;4.55;3.30;;;11.90;86.70;;;;;;5053132;28;20032;-74
2021/10/11 03:29:38;;;;;;;6.03;3.65;;;12.00;86.90;;;;;;5050927;28;20078;-74
2021/10/11 03:32:04;;;;;;;4.57;3.28;;;12.00;86.80;;;;;;5048127;28;20040;-74
2021/10/11 03:34:30;;;;;;;8.88;3.53;;;12.00;86.80;;;;;;5052342;28;20110;-74
2021/10/11 03:36:55;;;;;;;5.18;3.50;;;12.00;87.40;;;;;;5050906;28;20487;-74
2021/10/11 03:39:21;;;;;;;6.95;3.53;;;11.90;87.00;;;;;;5043534;28;20071;-76
2021/10/11 03:41:47;;;;;;;6.82;3.50;;;11.90;87.20;;;;;;5051820;28;20079;-74
2021/10/11 03:44:13;;;;;;;6.25;3.75;;;11.90;86.90;;;;;;5050182;28;20079;-74
2021/10/11 03:46:39;;;;;;;8.73;4.05;;;11.90;87.10;;;;;;5052026;28;20040;-74
2021/10/11 03:49:05;;;;;;;9.30;3.80;;;12.00;86.70;;;;;;5050114;28;20025;-74
2021/10/11 03:51:32;;;;;;;5.43;3.90;;;11.90;86.60;;;;;;5048650;28;20048;-74
2021/10/11 03:53:58;;;;;;;5.90;3.58;;;12.00;86.70;;;;;;5047421;28;20016;-74
2021/10/11 03:56:23;;;;;;;6.75;4.25;;;12.00;86.80;;;;;;5042674;28;20029;-74
2021/10/11 03:58:49;;;;;;;5.15;3.78;;;12.00;86.80;;;;;;5047886;28;20024;-74
2021/10/11 04:01:15;;;;;;;8.30;4.10;;;11.90;86.70;;;;;;5051736;28;20021;-74
2021/10/11 04:03:41;;;;;;;10.27;4.18;;;11.90;86.10;;;;;;5049625;28;20561;-74
2021/10/11 04:06:08;;;;;;;5.22;3.70;;;11.90;86.60;;;;;;5052345;28;20033;-74
2021/10/11 04:08:41;;;;;;;5.18;4.13;;;11.90;86.50;;;;;;5048468;28;20530;-74
2021/10/11 04:11:21;;;;;;;5.10;3.97;;;12.00;86.20;;;;;;5050657;28;20116;-74
2021/10/11 04:13:47;;;;;;;6.00;4.25;;;12.00;86.10;;;;;;5051527;28;20079;-74
2021/10/11 04:16:13;;;;;;;6.68;4.28;;;12.00;86.10;;;;;;5050949;28;20037;-74
2021/10/11 04:18:40;;;;;;;7.75;4.18;;;12.00;85.80;;;;;;5047495;28;20016;-74
2021/10/11 04:21:06;;;;;;;5.90;3.50;;;12.10;85.30;;;;;;5052397;28;20056;-74
2021/10/11 04:23:32;;;;;;;6.47;4.20;;;12.10;84.90;;;;;;5051683;28;20465;-74
2021/10/11 04:25:58;;;;;;;10.05;3.70;;;12.10;84.80;;;;;;5050976;28;20117;-74
2021/10/11 04:28:23;;;;;;;4.50;3.45;;;12.20;85.10;;;;;;5048093;28;20115;-74
2021/10/11 04:30:49;;;;;;;5.03;4.03;;;12.10;85.00;;;;;;5049755;28;20108;-74
2021/10/11 04:33:15;;;;;;;6.13;4.28;;;12.20;85.10;;;;;;5049714;28;20521;-74
2021/10/11 04:35:42;;;;;;;7.00;3.78;;;12.10;84.70;;;;;;5041862;28;20025;-74
2021/10/11 04:38:08;;;;;;;7.30;3.92;;;12.20;84.60;;;;;;5051858;28;20103;-74
2021/10/11 04:40:34;;;;;;;9.77;4.25;;;12.20;84.90;;;;;;5051388;28;20103;-73
2021/10/11 04:43:00;;;;;;;6.25;4.28;;;12.20;84.70;;;;;;5050865;28;20017;-74
2021/10/11 04:45:29;;;;;;;7.15;4.10;;;12.20;84.90;;;;;;5048336;28;20056;-74
2021/10/11 04:47:57;;;;;;;5.95;4.15;;;12.20;84.60;;;;;;5049121;28;20057;-74
2021/10/11 04:50:23;;;;;;;7.35;4.55;;;12.20;84.60;;;;;;5051345;28;20024;-74
2021/10/11 04:52:49;;;;;;;7.75;4.35;;;12.20;84.10;;;;;;5051141;28;20112;-74
2021/10/11 04:55:14;;;;;;;10.13;3.92;;;12.20;84.20;;;;;;5050437;28;20555;-74
2021/10/11 04:57:40;;;;;;;8.32;4.97;;;12.20;84.00;;;;;;5049667;28;20123;-74
2021/10/11 05:00:06;;;;;;;6.60;4.35;;;12.20;84.00;;;;;;5050611;28;20515;-74
2021/10/11 05:02:32;;;;;;;13.70;4.93;;;12.20;84.10;;;;;;5050991;28;20029;-74
2021/10/11 05:04:57;;;;;;;9.52;4.60;;;12.20;84.00;;;;;;5049602;28;20028;-74
2021/10/11 05:07:23;;;;;;;8.52;4.72;;;12.20;83.90;;;;;;5049964;28;20053;-74
2021/10/11 05:09:49;;;;;;;9.20;4.70;;;12.20;83.90;;;;;;5050690;28;20155;-73
2021/10/11 05:12:14;;;;;;;9.15;4.38;;;12.20;83.90;;;;;;5051131;28;20028;-74
2021/10/11 05:14:40;;;;;;;11.02;5.35;;;12.20;83.80;;;;;;5050444;28;20057;-73
2021/10/11 05:17:06;;;;;;;7.22;4.90;;;12.20;83.80;;;;;;5050571;28;20033;-73
2021/10/11 05:19:32;;;;;;;9.90;4.72;;;12.20;83.80;;;;;;5050666;28;20031;-74
2021/10/11 05:21:57;;;;;;;6.57;4.60;;;12.20;83.90;;;;;;5050823;28;20106;-74
2021/10/11 05:24:24;;;;;;;9.02;5.10;;;12.20;83.70;;;;;;5049720;28;20021;-74
2021/10/11 05:26:54;;;;;;;5.47;4.28;;;12.20;83.80;;;;;;5051149;28;20041;-74
2021/10/11 05:29:21;;;;;;;7.35;5.18;;;12.30;84.60;;;;;;5050149;28;20036;-74
2021/10/11 05:31:47;;;;;;;10.38;5.00;;;12.20;84.00;;;;;;5050769;28;20036;-73
2021/10/11 05:34:16;;;;;;;11.00;5.22;;;12.30;83.90;;;;;;5050288;28;20062;-74
2021/10/11 05:36:42;;;;;;;10.60;5.05;;;12.20;83.60;;;;;;5051106;28;20047;-74
2021/10/11 05:39:09;;;;;;;12.32;5.20;;;12.30;83.40;;;;;;5050026;28;20027;-74
2021/10/11 05:41:34;;;;;;;8.98;4.60;;;12.40;83.90;;;;;;5050608;28;20037;-74
2021/10/11 05:44:00;;;;;;;7.65;4.60;;;12.40;83.20;;;;;;5048147;28;20302;-73
2021/10/11 05:46:26;;;;;;;7.13;4.72;;;12.50;83.30;;;;;;5049177;28;20053;-74
2021/10/11 05:48:51;;;;;;;12.43;4.82;;;12.50;82.80;;;;;;5050360;28;20492;-73
2021/10/11 05:51:17;;;;;;;10.82;4.90;;;12.50;82.30;;;;;;5050996;28;20017;-74
2021/10/11 05:53:43;;;;;;;11.65;5.15;;;12.60;82.70;;;;;;5049499;28;20091;-77
2021/10/11 05:56:08;;;;;;;9.77;5.00;;;12.60;82.70;;;;;;5050601;28;20028;-74
2021/10/11 05:58:34;;;;;;;6.10;4.70;;;12.50;82.80;;;;;;5050213;28;20033;-75
2021/10/11 06:01:00;;;;;;;10.10;4.65;;;12.60;83.20;;;;;;5049310;28;20021;-74
2021/10/11 06:03:26;;;;;;;9.93;5.55;;;12.60;83.00;;;;;;5049957;28;20025;-74
2021/10/11 06:05:52;;;;;;;8.43;4.95;;;12.60;82.90;;;;;;5050399;28;20021;-74
2021/10/11 06:08:19;;;;;;;9.45;4.65;;;12.60;83.10;;;;;;5048365;28;20064;-74
2021/10/11 06:10:45;;;;;;;6.45;4.40;;;12.60;83.40;;;;;;5050252;28;20029;-79
2021/10/11 06:13:12;;;;;;;9.18;4.60;;;12.60;82.90;;;;;;5048555;28;20036;-75
2021/10/11 06:15:38;;;;;;;8.00;5.28;;;12.60;82.50;;;;;;5049729;28;20032;-74
2021/10/11 06:18:04;;;;;;;8.27;4.40;;;12.60;83.10;;;;;;5050495;28;20031;-74
2021/10/11 06:20:29;;;;;;;7.15;4.20;;;12.70;82.50;;;;;;5050346;28;20025;-75
2021/10/11 06:22:55;;;;;;;10.40;4.60;;;12.80;81.70;;;;;;5051173;28;20025;-75
2021/10/11 06:25:21;;;;;;;9.10;5.07;;;12.80;81.60;;;;;;5050227;28;20127;-76
2021/10/11 06:27:47;;;;;;;8.05;4.70;;;12.80;82.50;;;;;;5048289;28;20183;-75
2021/10/11 06:30:13;;;;;;;9.50;5.00;;;12.80;82.60;;;;;;5053762;28;20040;-74
2021/10/11 06:32:39;;;;;;;8.82;4.90;;;12.80;81.50;;;;;;5053070;28;20024;-77
2021/10/11 06:35:05;;;;;;;7.15;4.88;;;12.80;81.90;;;;;;5053997;28;20017;-75
2021/10/11 06:37:31;;;;;;;11.10;4.47;;;12.80;81.60;;;;;;5053643;28;20546;-77
2021/10/11 06:39:56;;;;;;;7.95;4.60;;;12.90;81.20;;;;;;5053967;28;20076;-75
2021/10/11 06:42:22;;;;;;;10.70;5.13;;;12.90;80.30;;;;;;5053415;28;20021;-75
2021/10/11 06:44:48;;;;;;;9.32;4.82;;;13.00;80.40;;;;;;5053614;28;20080;-78
2021/10/11 06:47:14;;;;;;;9.90;4.72;;;13.00;80.50;;;;;;5051976;28;20052;-76
2021/10/11 06:49:42;;;;;;;8.32;4.80;;;13.00;80.30;;;;;;5052587;28;20353;-75
2021/10/11 06:52:07;;;;;;;12.32;4.57;;;13.10;81.30;;;;;;5051790;28;20020;-74
2021/10/11 06:54:33;;;;;;;9.18;4.80;;;13.10;79.80;;;;;;5054027;28;20017;-74
2021/10/11 06:56:59;;;;;;;8.38;4.63;;;13.20;80.00;;;;;;5054107;28;20025;-75
2021/10/11 06:59:25;;;;;;;9.80;5.57;;;13.20;79.80;;;;;;5053168;28;20082;-75
2021/10/11 07:01:50;;;;;;;8.73;4.65;;;13.20;79.60;;;;;;5051995;28;20033;-74
2021/10/11 07:04:16;;;;;;;11.80;4.90;;;13.20;79.20;;;;;;5052809;28;20025;-75
2021/10/11 07:06:42;;;;;;;15.07;4.88;;;13.20;79.20;;;;;;5052737;28;20049;-75
2021/10/11 07:09:08;;;;;;;7.50;4.40;;;13.20;78.60;;;;;;5052651;28;20025;-75
2021/10/11 07:11:34;;;;;;;7.95;5.28;;;13.30;78.80;;;;;;5051867;28;20601;-75
2021/10/11 07:13:59;;;;;;;8.95;5.40;;;13.30;78.90;;;;;;5052961;28;20479;-75
2021/10/11 07:16:26;;;;;;;9.23;4.72;;;13.40;78.60;;;;;;5053545;28;20191;-75
2021/10/11 07:18:51;;;;;;;7.35;4.85;;;13.40;78.40;;;;;;5052979;28;20025;-76
2021/10/11 07:21:17;;;;;;;9.25;5.03;;;13.40;78.40;;;;;;5053461;28;20500;-76
2021/10/11 07:23:43;;;;;;;9.90;5.35;;;13.40;78.50;;;;;;5052786;28;20192;-76
2021/10/11 07:26:09;;;;;;;12.57;4.93;;;13.50;78.20;;;;;;5053226;28;20079;-76
2021/10/11 07:28:35;;;;;;;9.93;4.70;;;13.50;77.90;;;;;;5052062;28;20029;-74
2021/10/11 07:31:01;;;;;;;8.65;4.78;;;13.60;77.80;;;;;;5045586;28;20475;-75
2021/10/11 07:33:26;;;;;;;11.43;4.80;;;13.60;78.30;;;;;;5044140;28;20055;-75
2021/10/11 07:35:53;;;;;;;13.98;4.15;;;13.60;78.00;;;;;;5052852;28;20025;-76
2021/10/11 07:38:20;;;;;;;8.85;4.95;;;13.70;77.30;;;;;;5052787;28;20061;-75
2021/10/11 07:40:51;;;;;;;7.03;4.70;;;13.80;77.60;;;;;;5061782;28;20064;-75
2021/10/11 07:43:17;;;;;;;10.45;4.47;;;13.80;77.70;;;;;;5051781;28;20056;-75
2021/10/11 07:45:43;;;;;;;11.70;4.50;;;13.90;77.30;;;;;;5051518;28;20116;-76
2021/10/11 07:48:09;;;;;;;5.72;4.20;;;13.90;77.20;;;;;;5052526;28;20025;-75
2021/10/11 07:50:35;;;;;;;7.20;4.57;;;13.90;77.10;;;;;;5052608;28;20025;-75
2021/10/11 07:53:00;;;;;;;5.97;4.30;;;13.90;77.10;;;;;;5052623;28;20491;-75
2021/10/11 07:55:26;;;;;;;8.98;4.32;;;13.90;77.10;;;;;;5052451;28;20028;-75
2021/10/11 07:57:52;;;;;;;7.90;4.82;;;14.00;77.20;;;;;;5051677;28;20029;-75
2021/10/11 08:00:19;;;;;;;8.73;4.75;;;14.00;77.10;;;;;;5046442;28;20040;-75
2021/10/11 08:02:48;;;;;;;7.28;4.72;;;14.10;76.90;;;;;;5050828;28;20068;-75
2021/10/11 08:05:14;;;;;;;9.43;4.75;;;14.00;76.10;;;;;;5050721;28;20067;-76
2021/10/11 08:07:43;;;;;;;6.65;4.50;;;14.00;76.60;;;;;;5052522;28;20044;-76
2021/10/11 08:10:10;;;;;;;9.95;4.97;;;14.00;76.40;;;;;;5052361;28;20116;-77
2021/10/11 08:12:36;;;;;;;9.45;4.47;;;14.00;76.50;;;;;;5052214;28;20055;-75
2021/10/11 08:15:03;;;;;;;9.73;5.07;;;14.00;75.90;;;;;;5057282;28;20025;-76
2021/10/11 08:17:29;;;;;;;7.40;4.43;;;14.00;76.10;;;;;;5052521;28;20029;-75
2021/10/11 08:19:54;;;;;;;10.80;4.93;;;14.10;76.00;;;;;;5052137;28;20025;-75
2021/10/11 08:22:21;;;;;;;12.68;4.53;;;14.10;76.00;;;;;;5052800;28;20070;-75
2021/10/11 08:24:51;;;;;;;7.28;4.50;;;14.10;75.60;;;;;;5051840;28;20024;-75
2021/10/11 08:27:18;;;;;;;12.25;5.15;;;14.10;75.50;;;;;;5051508;28;20025;-77
2021/10/11 08:29:52;;;;;;;8.50;4.95;;;14.10;75.30;;;;;;5047331;28;20028;-76
2021/10/11 08:32:22;;;;;;;9.52;4.43;;;14.20;76.20;;;;;;5049917;28;20025;-77
2021/10/11 08:34:48;;;;;;;9.70;4.60;;;14.30;75.90;;;;;;5048213;28;20114;-76
2021/10/11 08:37:14;;;;;;;7.03;4.80;;;14.30;75.60;;;;;;5051845;28;20447;-75
2021/10/11 08:39:41;;;;;;;10.98;5.00;;;14.40;77.00;;;;;;5044918;28;20024;-75
2021/10/11 08:42:07;;;;;;;6.15;4.43;;;14.40;75.60;;;;;;5048735;28;20507;-75
2021/10/11 08:44:32;;;;;;;6.60;4.40;;;14.40;76.10;;;;;;5047407;28;20040;-75
2021/10/11 08:46:59;;;;;;;8.52;4.43;;;14.40;75.50;;;;;;5050538;28;20458;-75
2021/10/11 08:49:25;;;;;;;9.02;4.32;;;14.40;75.70;;;;;;5049866;28;20475;-75
2021/10/11 08:51:51;;;;;;;7.47;4.60;;;14.50;76.10;;;;;;5049818;28;20056;-74
2021/10/11 08:54:17;;;;;;;6.22;4.07;;;14.60;77.40;;;;;;5051175;28;20079;-75
2021/10/11 08:56:42;;;;;;;7.38;4.68;;;14.60;75.00;;;;;;5051582;28;20029;-74
2021/10/11 08:59:08;;;;;;;5.95;3.97;;;14.70;74.80;;;;;;5050694;28;20420;-74
2021/10/11 09:01:35;;;;;;;9.82;4.75;;;14.80;75.20;;;;;;5046349;28;20040;-74
2021/10/11 09:04:19;;;;;;;9.48;4.30;;;14.80;76.50;;;;;;5041184;28;20036;-75
2021/10/11 09:07:04;;;;;;;8.07;4.63;;;14.80;75.80;;;;;;5070052;28;20032;-74
2021/10/11 09:09:31;;;;;;;10.20;4.30;;;14.90;74.70;;;;;;5070138;28;20017;-74
2021/10/11 09:11:56;;;;;;;10.35;4.10;;;14.90;75.50;;;;;;5071183;28;20455;-74
2021/10/11 09:14:23;;;;;;;6.28;4.25;;;15.00;74.70;;;;;;5070255;28;20052;-75
2021/10/11 09:17:01;;;;;;;7.90;4.05;;;15.00;74.30;;;;;;5069494;28;20028;-75
2021/10/11 09:19:36;;;;;;;7.80;4.28;;;14.90;74.30;;;;;;5070246;28;20032;-75
2021/10/11 09:22:03;;;;;;;9.38;3.85;;;15.00;75.20;;;;;;5063302;28;20483;-74
2021/10/11 09:24:29;;;;;;;11.15;4.47;;;15.00;74.30;;;;;;5071089;28;20091;-75
2021/10/11 09:26:59;;;;;;;7.15;3.60;;;15.10;74.40;;;;;;5070878;28;20279;-76
2021/10/11 09:29:31;;;;;;;6.90;3.70;;;15.10;73.40;;;;;;5068530;28;20035;-76
2021/10/11 09:32:15;;;;;;;6.20;3.97;;;15.00;74.20;;;;;;5066449;28;20474;-76
2021/10/11 09:34:42;;;;;;;10.27;4.28;;;15.00;74.10;;;;;;5069992;28;20121;-76
2021/10/11 09:37:15;;;;;;;7.88;4.00;;;14.90;74.20;;;;;;5070628;28;20479;-75
2021/10/11 09:39:42;;;;;;;7.93;4.45;;;14.90;74.00;;;;;;5060004;28;20031;-75
2021/10/11 09:42:13;;;;;;;7.22;4.35;;;14.90;75.20;;;;;;5069986;28;20027;-75
2021/10/11 09:44:50;;;;;;;8.20;4.15;;;15.00;74.10;;;;;;5069473;28;20025;-75
2021/10/11 09:47:27;;;;;;;11.20;4.53;;;14.90;73.70;;;;;;5069977;28;20041;-76
2021/10/11 09:49:53;;;;;;;5.60;4.00;;;14.80;74.80;;;;;;5069015;28;20032;-74
2021/10/11 09:52:20;;;;;;;8.07;4.90;;;14.80;74.80;;;;;;5071046;28;20012;-74
2021/10/11 09:54:46;;;;;;;12.55;4.93;;;14.70;74.70;;;;;;5068968;28;20103;-76
2021/10/11 09:57:12;;;;;;;8.10;4.65;;;14.70;74.70;;;;;;5070164;28;20107;-74
2021/10/11 09:59:39;;;;;;;6.50;4.43;;;14.70;75.20;;;;;;5070047;28;20609;-76
2021/10/11 10:02:05;;;;;;;9.23;4.72;;;14.70;74.70;;;;;;5070451;28;20499;-76
2021/10/11 10:04:37;;;;;;;8.57;5.00;;;14.70;74.50;;;;;;5054695;28;20049;-75
2021/10/11 10:07:07;;;;;;;9.43;4.32;;;14.70;74.50;;;;;;5070660;28;20063;-76
2021/10/11 10:09:37;;;;;;;8.10;4.40;;;14.70;74.20;;;;;;5072317;28;20023;-75
2021/10/11 10:12:06;;;;;;;11.98;4.90;;;14.70;74.10;;;;;;5067202;28;20020;-76
2021/10/11 10:14:34;;;;;;;10.45;5.28;;;14.80;74.10;;;;;;5072865;28;20028;-76
2021/10/11 10:16:59;;;;;;;9.02;4.85;;;14.90;74.20;;;;;;5074321;28;20462;-75
2021/10/11 10:19:39;;;;;;;8.27;5.43;;;14.90;73.80;;;;;;5073870;28;20047;-75
2021/10/11 10:22:15;;;;;;;8.55;4.82;;;14.90;74.70;;;;;;5067381;28;20055;-76
2021/10/11 10:24:41;;;;;;;8.63;5.10;;;15.00;73.10;;;;;;5073638;28;20051;-76
2021/10/11 10:27:10;;;;;;;9.32;5.15;;;15.00;72.90;;;;;;5074355;28;20032;-76
2021/10/11 10:29:44;;;;;;;12.43;4.82;;;14.90;73.10;;;;;;5073898;28;20021;-76
2021/10/11 10:32:12;;;;;;;7.63;5.45;;;15.00;74.20;;;;;;5073643;28;20258;-75
2021/10/11 10:34:38;;;;;;;9.68;4.78;;;15.10;73.30;;;;;;5072289;28;20028;-76
2021/10/11 10:37:08;;;;;;;6.95;4.53;;;15.40;73.10;;;;;;5073579;28;20032;-75
2021/10/11 10:39:49;;;;;;;8.57;4.75;;;15.70;74.30;;;;;;5072362;28;20424;-76
2021/10/11 10:42:30;;;;;;;12.65;4.40;;;16.10;72.30;;;;;;5069774;28;20028;-76
2021/10/11 10:44:57;;;;;;;5.97;4.65;;;16.60;71.00;;;;;;5072643;28;20538;-76
2021/10/11 10:47:40;;;;;;;9.88;4.75;;;16.90;69.80;;;;;;5068098;28;20057;-75
2021/10/11 10:50:28;;;;;;;6.40;5.05;;;17.20;70.70;;;;;;5065260;28;20441;-75
2021/10/11 10:52:58;;;;;;;7.15;4.50;;;17.40;67.30;;;;;;5067508;28;20518;-75
2021/10/11 10:55:24;;;;;;;14.25;4.80;;;17.70;67.80;;;;;;5069645;28;20056;-75
2021/10/11 10:57:58;;;;;;;9.15;5.07;;;17.90;66.90;;;;;;5069817;28;20028;-75
2021/10/11 11:00:23;;;;;;;9.15;4.75;;;18.10;65.80;;;;;;5069242;28;20032;-75
2021/10/11 11:02:51;;;;;;;6.93;4.57;;;18.30;64.80;;;;;;5054889;28;20454;-76
2021/10/11 11:05:19;;;;;;;7.72;4.50;;;18.10;64.40;;;;;;5061042;28;20044;-74
2021/10/11 11:07:47;;;;;;;10.38;4.10;;;18.00;65.30;;;;;;5070373;28;20040;-76
2021/10/11 11:10:18;;;;;;;7.35;4.55;;;18.30;68.70;;;;;;5069253;28;20024;-74
2021/10/11 11:12:54;;;;;;;7.85;4.63;;;18.70;67.00;;;;;;5070950;28;20035;-74
2021/10/11 11:15:29;;;;;;;7.88;3.95;;;19.00;63.40;;;;;;5068658;28;20032;-76
2021/10/11 11:17:57;;;;;;;9.90;4.38;;;18.90;65.10;;;;;;5069147;28;20016;-76
2021/10/11 11:20:29;;;;;;;8.15;4.72;;;19.30;63.20;;;;;;5070545;28;20911;-80
2021/10/11 11:22:59;;;;;;;5.17;4.17;;;19.50;64.60;;;;;;5067472;28;20067;-75
2021/10/11 11:25:32;;;;;;;14.55;4.82;;;19.20;62.60;;;;;;5069805;28;20059;-78
2021/10/11 11:28:00;;;;;;;8.35;4.45;;;18.70;65.20;;;;;;5061069;28;20048;-79
2021/10/11 11:30:27;;;;;;;7.35;4.57;;;18.60;65.50;;;;;;5068610;28;20024;-79
2021/10/11 11:32:58;;;;;;;15.48;5.82;;;18.60;64.80;;;;;;5069518;28;20338;-80
2021/10/11 11:35:29;;;;;;;21.27;5.05;;;18.70;66.10;;;;;;5070991;28;20032;-77
2021/10/11 11:37:58;;;;;;;9.73;4.57;;;18.60;64.80;;;;;;5069055;28;20024;-75
2021/10/11 11:40:30;;;;;;;7.95;4.13;;;18.80;64.30;;;;;;5069908;28;20271;-75
2021/10/11 11:42:56;;;;;;;7.88;4.28;;;19.10;65.00;;;;;;5070912;28;20097;-78
2021/10/11 11:45:34;;;;;;;8.10;4.57;;;19.40;63.10;;;;;;5066866;28;20526;-75
2021/10/11 11:48:06;;;;;;;9.90;4.28;;;19.70;61.40;;;;;;5064084;28;20058;-76
2021/10/11 11:50:32;;;;;;;8.90;4.60;;;20.00;62.80;;;;;;5068715;28;20028;-75
2021/10/11 11:52:59;;;;;;;9.05;4.25;;;20.30;60.80;;;;;;5061031;28;20611;-76
2021/10/11 11:55:25;;;;;;;10.75;4.57;;;20.40;60.10;;;;;;5058724;28;20017;-75
2021/10/11 11:57:51;;;;;;;5.03;3.95;;;20.50;60.40;;;;;;5063550;28;20024;-77
2021/10/11 12:00:17;;;;;;;5.55;4.47;;;20.90;60.20;;;;;;5052987;28;20404;-76
2021/10/11 12:02:45;;;;;;;13.38;4.18;;;21.80;58.20;;;;;;5066634;28;20024;-78
2021/10/11 12:05:11;;;;;;;7.10;4.60;;;24.40;54.60;;;;;;5060618;28;20025;-77
2021/10/11 12:07:40;;;;;;;6.47;4.10;;;27.50;50.50;;;;;;5066481;28;20033;-75
2021/10/11 12:10:07;;;;;;;6.45;4.15;;;29.50;49.40;;;;;;5065058;28;20111;-74
2021/10/11 12:12:34;;;;;;;4.97;3.60;;;30.10;46.70;;;;;;5066425;28;20028;-77
2021/10/11 12:15:00;;;;;;;10.15;3.97;;;30.80;45.10;;;;;;5062621;28;20031;-74
2021/10/11 12:17:34;;;;;;;7.45;3.70;;;31.20;44.30;;;;;;5068981;28;20028;-75
2021/10/11 12:20:01;;;;;;;6.97;3.47;;;31.30;43.90;;;;;;5068207;28;20028;-76
2021/10/11 12:22:33;;;;;;;4.65;3.33;;;31.20;43.70;;;;;;5067935;28;20580;-77
2021/10/11 12:25:05;;;;;;;5.32;3.38;;;31.90;42.90;;;;;;5069077;28;20047;-75
2021/10/11 12:27:31;;;;;;;14.40;3.75;;;32.30;42.10;;;;;;5068200;28;20215;-74
2021/10/11 12:30:01;;;;;;;10.93;4.28;;;32.00;43.10;;;;;;5067369;28;20152;-75
2021/10/11 12:32:32;;;;;;;5.28;3.60;;;31.80;43.10;;;;;;5068369;28;20900;-76
2021/10/11 12:35:00;;;;;;;4.30;3.30;;;29.90;43.70;;;;;;5067751;28;20074;-76
2021/10/11 12:37:36;;;;;;;6.13;3.33;;;28.00;46.30;;;;;;5067440;28;20398;-75
2021/10/11 12:40:04;;;;;;;6.35;3.50;;;28.20;48.50;;;;;;5064363;28;20421;-74
2021/10/11 12:42:30;;;;;;;8.63;4.05;;;30.20;44.80;;;;;;5065190;28;20032;-76
2021/10/11 12:45:00;;;;;;;6.07;3.63;;;31.80;43.10;;;;;;5067872;28;20107;-78